LFNW weather

Puivert Airfield
Languedoc-Roussillon, France

Public forecast

Using degrees Celsius for public forecast. Weather courtesy of forecast.io.

METAR (pilot weather report)

Closest report is Carcassonne Airport, 21.3 nm (39.5 km) NNE. Retrieved 2019/09/15 06:30 UTC (30 minutes ago):

LFMK 150630Z AUTO 08007KT CAVOK 19/15 Q1023 NOSIG

TAF (pilot weather forecast)

Closest forecast is Carcassonne Airport, 21.3 nm (39.5 km) NNE. Retrieved 2019/09/15 03:42 UTC (3 hours ago):

TAF TAF LFMK 150200Z 1503/1603 09010KT CAVOK BECMG 1519/1521 07005KT